createdAt,value
2018-11-28T00:00:17.083Z,6.10
2018-11-28T00:02:45.483Z,4.37
2018-11-28T00:05:13.950Z,6.10
2018-11-28T00:07:42.792Z,9.87
2018-11-28T00:10:12.330Z,4.93
2018-11-28T00:12:41.488Z,7.03
2018-11-28T00:15:13.321Z,7.93
2018-11-28T00:17:42.143Z,17.07
2018-11-28T00:20:13.845Z,6.97
2018-11-28T00:22:42.769Z,8.90
2018-11-28T00:25:12.255Z,14.57
2018-11-28T00:27:40.696Z,12.37
2018-11-28T00:30:13.565Z,5.77
2018-11-28T00:32:42.272Z,7.20
2018-11-28T00:35:14.171Z,13.90
2018-11-28T00:37:42.612Z,6.10
2018-11-28T00:40:15.153Z,12.43
2018-11-28T00:42:43.662Z,6.70
2018-11-28T00:45:13.543Z,12.37
2018-11-28T00:47:42.203Z,3.00
2018-11-28T00:50:28.333Z,7.87
2018-11-28T00:52:56.772Z,4.80
2018-11-28T00:55:25.264Z,6.70
2018-11-28T00:57:54.127Z,8.70
2018-11-28T01:00:24.611Z,8.37
2018-11-28T01:02:53.093Z,11.13
2018-11-28T01:05:21.596Z,9.10
2018-11-28T01:07:50.862Z,8.20
2018-11-28T01:10:20.965Z,7.83
2018-11-28T01:12:50.081Z,8.10
2018-11-28T01:15:19.180Z,10.77
2018-11-28T01:17:47.651Z,10.00
2018-11-28T01:20:17.139Z,11.67
2018-11-28T01:22:45.627Z,6.83
2018-11-28T01:25:16.116Z,8.97
2018-11-28T01:27:44.664Z,14.13
2018-11-28T01:30:21.211Z,9.87
2018-11-28T01:32:49.688Z,3.00
2018-11-28T01:35:19.068Z,7.67
2018-11-28T01:37:47.586Z,6.83
2018-11-28T01:40:20.860Z,7.90
2018-11-28T01:42:49.356Z,15.87
2018-11-28T01:45:22.001Z,8.37
2018-11-28T01:47:50.824Z,6.00
2018-11-28T01:50:20.220Z,15.63
2018-11-28T01:52:48.727Z,8.27
2018-11-28T01:55:18.696Z,9.30
2018-11-28T01:57:47.251Z,5.37
2018-11-28T02:00:21.773Z,9.00
2018-11-28T02:02:51.679Z,8.27
2018-11-28T02:05:20.460Z,11.47
2018-11-28T02:07:48.907Z,5.10
2018-11-28T02:10:17.488Z,9.13
2018-11-28T02:12:45.933Z,14.33
2018-11-28T02:15:16.393Z,6.53
2018-11-28T02:17:45.195Z,7.17
2018-11-28T02:20:14.985Z,9.23
2018-11-28T02:22:43.435Z,6.83
2018-11-28T02:25:15.684Z,9.60
2018-11-28T02:27:44.573Z,6.90
2018-11-28T02:30:14.997Z,13.00
2018-11-28T02:32:44.159Z,5.23
2018-11-28T02:35:14.193Z,5.90
2018-11-28T02:37:43.309Z,14.70
2018-11-28T02:40:12.687Z,7.40
2018-11-28T02:42:41.179Z,12.83
2018-11-28T02:45:12.989Z,15.83
2018-11-28T02:47:41.434Z,9.10
2018-11-28T02:50:10.040Z,8.60
2018-11-28T02:52:38.658Z,9.43
2018-11-28T02:55:10.348Z,17.87
2018-11-28T02:57:39.198Z,9.23
2018-11-28T03:00:15.485Z,8.27
2018-11-28T03:02:43.932Z,7.17
2018-11-28T03:05:13.353Z,14.73
2018-11-28T03:07:41.809Z,13.53
2018-11-28T03:10:18.112Z,4.80
2018-11-28T03:12:46.533Z,16.10
2018-11-28T03:15:22.677Z,10.90
2018-11-28T03:17:51.583Z,10.63
2018-11-28T03:20:20.062Z,8.87
2018-11-28T03:22:48.501Z,11.80
2018-11-28T03:25:17.276Z,8.07
2018-11-28T03:27:46.216Z,12.20
2018-11-28T03:30:15.607Z,13.00
2018-11-28T03:32:44.076Z,18.93
2018-11-28T03:35:13.998Z,10.87
2018-11-28T03:37:42.449Z,6.83
2018-11-28T03:40:11.040Z,4.37
2018-11-28T03:42:39.526Z,13.13
2018-11-28T03:45:12.323Z,14.90
2018-11-28T03:47:41.159Z,10.47
2018-11-28T03:50:11.171Z,13.30
2018-11-28T03:52:39.800Z,10.80
2018-11-28T03:55:10.624Z,9.00
2018-11-28T03:57:39.138Z,9.47
2018-11-28T04:00:12.344Z,7.07
2018-11-28T04:02:40.793Z,9.07
2018-11-28T04:05:10.011Z,11.57
2018-11-28T04:07:38.390Z,17.40
2018-11-28T04:10:10.376Z,11.33
2018-11-28T04:12:39.212Z,12.60
2018-11-28T04:15:14.795Z,14.47
2018-11-28T04:17:43.216Z,12.17
2018-11-28T04:20:15.934Z,5.67
2018-11-28T04:22:44.716Z,12.30
2018-11-28T04:25:13.871Z,8.27
2018-11-28T04:27:42.633Z,11.47
2018-11-28T04:30:15.087Z,14.27
2018-11-28T04:32:43.512Z,6.50
2018-11-28T04:35:13.036Z,8.43
2018-11-28T04:37:41.601Z,13.47
2018-11-28T04:40:12.168Z,11.83
2018-11-28T04:42:40.641Z,13.00
2018-11-28T04:45:19.762Z,17.80
2018-11-28T04:47:48.291Z,6.43
2018-11-28T04:50:16.888Z,17.50
2018-11-28T04:52:45.296Z,10.43
2018-11-28T04:55:15.483Z,14.10
2018-11-28T04:57:44.697Z,9.13
2018-11-28T05:00:29.916Z,10.60
2018-11-28T05:02:58.734Z,14.67
2018-11-28T05:05:27.169Z,4.20
2018-11-28T05:07:55.728Z,7.13
2018-11-28T05:10:25.999Z,11.67
2018-11-28T05:12:55.379Z,11.63
2018-11-28T05:15:25.996Z,11.20
2018-11-28T05:17:54.673Z,9.70
2018-11-28T05:20:25.476Z,7.17
2018-11-28T05:22:53.929Z,7.10
2018-11-28T05:25:23.380Z,7.10
2018-11-28T05:27:53.036Z,7.07
2018-11-28T05:30:23.459Z,3.60
2018-11-28T05:32:52.281Z,5.97
2018-11-28T05:35:24.993Z,3.07
2018-11-28T05:37:53.552Z,7.60
2018-11-28T05:40:23.533Z,8.30
2018-11-28T05:42:52.472Z,14.07
2018-11-28T05:45:21.352Z,12.17
2018-11-28T05:47:49.953Z,5.80
2018-11-28T05:50:20.635Z,9.93
2018-11-28T05:52:49.282Z,5.70
2018-11-28T05:55:19.012Z,4.37
2018-11-28T05:57:47.582Z,6.60
2018-11-28T06:00:26.284Z,12.00
2018-11-28T06:02:54.741Z,13.70
2018-11-28T06:05:23.211Z,15.50
2018-11-28T06:07:51.628Z,10.70
2018-11-28T06:10:20.067Z,14.83
2018-11-28T06:12:48.547Z,11.90
2018-11-28T06:15:16.964Z,13.80
2018-11-28T06:17:45.414Z,8.20
2018-11-28T06:20:15.072Z,5.47
2018-11-28T06:22:43.650Z,15.60
2018-11-28T06:25:16.164Z,16.03
2018-11-28T06:27:41.556Z,16.33
2018-11-28T06:30:12.419Z,15.67
2018-11-28T06:32:40.978Z,20.33
2018-11-28T06:35:10.499Z,15.60
2018-11-28T06:37:38.955Z,13.60
2018-11-28T06:40:11.052Z,14.10
2018-11-28T06:42:39.573Z,7.57
2018-11-28T06:45:10.777Z,18.73
2018-11-28T06:47:39.289Z,14.50
2018-11-28T06:50:10.190Z,15.60
2018-11-28T06:52:38.608Z,9.10
2018-11-28T06:55:10.862Z,8.23
2018-11-28T06:57:40.162Z,15.37
2018-11-28T07:00:16.318Z,13.70
2018-11-28T07:02:44.916Z,15.60
2018-11-28T07:05:13.769Z,15.40
2018-11-28T07:07:42.324Z,8.83
2018-11-28T07:10:13.904Z,6.30
2018-11-28T07:12:42.337Z,15.10
2018-11-28T07:15:11.971Z,12.33
2018-11-28T07:17:41.405Z,12.27
2018-11-28T07:20:11.093Z,12.13
2018-11-28T07:22:39.575Z,6.60
2018-11-28T07:25:15.732Z,3.13
2018-11-28T07:27:45.308Z,7.70
2018-11-28T07:30:27.673Z,7.37
2018-11-28T07:32:57.233Z,12.93
2018-11-28T07:35:25.685Z,5.20
2018-11-28T07:37:54.145Z,12.03
2018-11-28T07:40:25.663Z,8.90
2018-11-28T07:43:02.973Z,11.90
2018-11-28T07:45:31.414Z,9.70
2018-11-28T07:47:59.817Z,6.20
2018-11-28T07:50:28.257Z,9.83
2018-11-28T07:52:56.656Z,9.70
2018-11-28T07:55:25.492Z,8.77
2018-11-28T07:57:53.887Z,8.87
2018-11-28T08:00:22.374Z,7.27
2018-11-28T08:02:51.777Z,5.37
2018-11-28T08:05:20.244Z,1.80
2018-11-28T08:07:48.808Z,4.37
2018-11-28T08:10:21.954Z,4.90
2018-11-28T08:12:53.279Z,7.23
2018-11-28T08:15:22.072Z,6.43
2018-11-28T08:17:50.622Z,6.73
2018-11-28T08:20:19.100Z,6.13
2018-11-28T08:22:47.897Z,6.00
2018-11-28T08:25:17.213Z,6.40
2018-11-28T08:27:47.150Z,7.03
2018-11-28T08:30:24.122Z,3.40
2018-11-28T08:32:52.996Z,7.30
2018-11-28T08:35:21.877Z,6.20
2018-11-28T08:37:51.228Z,3.30
2018-11-28T08:40:22.863Z,3.17
2018-11-28T08:42:51.366Z,3.13
2018-11-28T08:45:21.015Z,3.17
2018-11-28T08:47:50.441Z,4.00
2018-11-28T08:50:22.138Z,5.77
2018-11-28T08:52:50.932Z,2.80
2018-11-28T08:55:19.345Z,2.10
2018-11-28T08:57:47.805Z,2.80
2018-11-28T09:00:20.425Z,3.00
2018-11-28T09:02:50.026Z,3.10
2018-11-28T09:05:18.469Z,5.97
2018-11-28T09:07:46.896Z,2.03
2018-11-28T09:10:16.484Z,3.90
2018-11-28T09:12:46.326Z,2.93
2018-11-28T09:15:16.528Z,1.93
2018-11-28T09:17:44.969Z,1.73
2018-11-28T09:20:14.512Z,2.00
2018-11-28T09:22:43.019Z,1.80
2018-11-28T09:25:15.723Z,4.43
2018-11-28T09:27:45.061Z,2.30
2018-11-28T09:30:15.589Z,2.53
2018-11-28T09:32:44.102Z,1.67
2018-11-28T09:35:13.600Z,2.30
2018-11-28T09:37:45.632Z,3.63
2018-11-28T09:40:15.097Z,2.47
2018-11-28T09:42:43.523Z,1.20
2018-11-28T09:45:13.165Z,2.00
2018-11-28T09:47:41.948Z,1.97
2018-11-28T09:50:14.648Z,2.97
2018-11-28T09:52:43.776Z,2.73
2018-11-28T09:55:13.739Z,2.53
2018-11-28T09:57:42.198Z,4.60
2018-11-28T10:00:20.448Z,3.83
2018-11-28T10:02:49.769Z,4.50
2018-11-28T10:05:23.305Z,1.90
2018-11-28T10:07:51.712Z,3.47
2018-11-28T10:10:20.469Z,4.27
2018-11-28T10:12:48.880Z,1.40
2018-11-28T10:15:20.229Z,3.20
2018-11-28T10:17:49.022Z,2.43
2018-11-28T10:20:18.234Z,1.50
2018-11-28T10:22:47.397Z,4.13
2018-11-28T10:25:19.774Z,1.63
2018-11-28T10:27:51.515Z,3.50
2018-11-28T10:30:26.155Z,3.30
2018-11-28T10:32:54.907Z,3.67
2018-11-28T10:35:24.032Z,3.40
2018-11-28T10:37:52.637Z,3.27
2018-11-28T10:40:26.052Z,2.70
2018-11-28T10:42:55.788Z,3.93
2018-11-28T10:45:26.340Z,2.53
2018-11-28T11:02:49.154Z,5.40
2018-11-28T11:05:22.989Z,5.23
2018-11-28T11:07:56.744Z,3.33
2018-11-28T11:10:30.528Z,4.83
2018-11-28T11:13:04.678Z,2.27
2018-11-28T11:15:33.136Z,4.87
2018-11-28T11:18:02.238Z,2.40
2018-11-28T11:20:30.337Z,3.07
2018-11-28T11:22:58.777Z,3.97
2018-11-28T11:25:27.547Z,5.70
2018-11-28T11:27:55.991Z,5.93
2018-11-28T11:30:24.789Z,4.83
2018-11-28T11:32:53.200Z,5.00
2018-11-28T11:35:21.646Z,6.53
2018-11-28T11:37:50.084Z,4.37
2018-11-28T11:40:18.515Z,2.93
2018-11-28T11:42:46.919Z,2.63
2018-11-28T11:45:16.041Z,4.33
2018-11-28T11:47:44.494Z,4.20
2018-11-28T11:50:17.701Z,4.37
2018-11-28T11:52:46.554Z,4.37
2018-11-28T11:55:17.998Z,7.13
2018-11-28T11:57:46.776Z,3.87
2018-11-28T12:00:23.051Z,1.60
2018-11-28T12:03:01.913Z,3.10
2018-11-28T12:05:30.331Z,5.20
2018-11-28T12:07:59.104Z,3.27
2018-11-28T12:10:27.520Z,3.53
2018-11-28T12:12:55.915Z,4.17
2018-11-28T12:15:24.364Z,2.50
2018-11-28T12:17:52.745Z,3.90
2018-11-28T12:20:24.477Z,3.90
2018-11-28T12:22:53.007Z,1.93
2018-11-28T12:25:21.344Z,1.83
2018-11-28T12:27:49.749Z,1.63
2018-11-28T12:30:18.892Z,4.67
2018-11-28T12:32:47.352Z,4.40
2018-11-28T12:35:18.015Z,3.10
2018-11-28T12:37:46.439Z,5.70
2018-11-28T12:40:16.138Z,3.70
2018-11-28T12:42:46.263Z,4.90
2018-11-28T12:45:16.501Z,2.97
2018-11-28T12:47:45.767Z,3.83
2018-11-28T12:50:24.230Z,1.83
2018-11-28T12:52:53.684Z,3.67
2018-11-28T12:55:22.476Z,4.10
2018-11-28T12:57:51.877Z,3.30
2018-11-28T13:00:23.720Z,3.03
2018-11-28T13:02:52.143Z,1.93
2018-11-28T13:05:21.627Z,4.10
2018-11-28T13:07:50.083Z,1.50
2018-11-28T13:10:27.315Z,3.40
2018-11-28T13:12:56.533Z,3.20
2018-11-28T13:15:25.776Z,1.30
2018-11-28T13:17:54.292Z,3.20
2018-11-28T13:20:22.842Z,2.50
2018-11-28T13:22:53.709Z,4.77
2018-11-28T13:25:24.434Z,2.70
2018-11-28T13:27:52.889Z,2.00
2018-11-28T13:30:23.363Z,2.50
2018-11-28T13:32:52.444Z,2.13
2018-11-28T13:35:25.465Z,3.30
2018-11-28T13:37:58.441Z,3.13
2018-11-28T13:40:26.868Z,3.83
2018-11-28T13:42:55.316Z,5.00
2018-11-28T13:45:26.090Z,2.23
2018-11-28T13:47:55.588Z,1.97
2018-11-28T13:50:24.764Z,2.03
2018-11-28T13:52:54.232Z,1.90
2018-11-28T13:55:39.568Z,3.70
2018-11-28T13:58:03.717Z,2.77
2018-11-28T14:00:32.350Z,2.10
2018-11-28T14:03:03.005Z,2.60
2018-11-28T14:05:31.419Z,2.20
2018-11-28T14:07:59.870Z,2.50
2018-11-28T14:10:28.507Z,3.43
2018-11-28T14:12:57.220Z,3.70
2018-11-28T14:15:25.612Z,1.83
2018-11-28T14:17:56.233Z,1.60
2018-11-28T14:20:24.673Z,2.93
2018-11-28T14:22:53.104Z,2.50
2018-11-28T14:25:21.516Z,1.90
2018-11-28T14:27:50.944Z,3.07
2018-11-28T14:30:20.845Z,0.67
2018-11-28T14:32:50.487Z,1.90
2018-11-28T14:35:19.228Z,2.10
2018-11-28T14:37:47.653Z,3.20
2018-11-28T14:40:19.527Z,4.77
2018-11-28T14:42:56.163Z,2.70
2018-11-28T14:45:24.973Z,1.30
2018-11-28T14:47:53.460Z,1.40
2018-11-28T14:50:23.712Z,1.60
2018-11-28T14:52:54.082Z,1.43
2018-11-28T14:55:26.549Z,1.63
2018-11-28T14:57:54.977Z,2.63
2018-11-28T15:00:24.534Z,4.30
2018-11-28T15:02:57.100Z,1.53
2018-11-28T15:05:32.962Z,1.73
2018-11-28T15:08:04.191Z,2.90
2018-11-28T15:10:40.556Z,1.43
2018-11-28T15:13:08.987Z,1.87
2018-11-28T15:15:37.438Z,2.60
2018-11-28T15:18:05.926Z,1.13
2018-11-28T15:20:34.336Z,2.43
2018-11-28T15:23:02.752Z,3.00
2018-11-28T15:25:31.167Z,1.70
2018-11-28T15:27:59.581Z,2.20
2018-11-28T15:30:28.558Z,1.37
2018-11-28T15:32:57.304Z,1.07
2018-11-28T15:35:25.725Z,1.27
2018-11-28T15:37:54.120Z,0.80
2018-11-28T15:40:22.557Z,0.90
2018-11-28T15:42:50.948Z,1.10
2018-11-28T15:45:19.695Z,1.80
2018-11-28T15:47:48.107Z,0.60
2018-11-28T15:50:16.837Z,0.93
2018-11-28T15:52:45.228Z,1.00
2018-11-28T15:55:13.796Z,1.60
2018-11-28T15:57:42.206Z,2.50
2018-11-28T16:00:22.388Z,3.10
2018-11-28T16:02:50.154Z,1.13
2018-11-28T16:05:18.929Z,1.17
2018-11-28T16:07:47.383Z,1.53
2018-11-28T16:10:21.423Z,2.30
2018-11-28T16:12:50.993Z,2.60
2018-11-28T16:15:22.107Z,2.53
2018-11-28T16:17:50.520Z,2.70
2018-11-28T16:20:18.961Z,2.37
2018-11-28T16:22:47.381Z,2.10
2018-11-28T16:25:15.877Z,1.53
2018-11-28T16:27:44.292Z,2.00
2018-11-28T16:30:15.300Z,1.77
2018-11-28T16:32:44.691Z,2.40
2018-11-28T16:35:14.266Z,1.20
2018-11-28T16:37:43.009Z,1.33
2018-11-28T16:40:15.367Z,1.83
2018-11-28T16:42:43.876Z,2.70
2018-11-28T16:45:17.490Z,2.20
2018-11-28T16:47:45.983Z,1.77
2018-11-28T16:50:15.467Z,1.20
2018-11-28T16:52:43.919Z,1.30
2018-11-28T16:55:13.505Z,2.07
2018-11-28T16:57:44.173Z,1.30
2018-11-28T17:00:13.860Z,1.73
2018-11-28T17:02:42.280Z,1.27
2018-11-28T17:05:17.930Z,1.63
2018-11-28T17:07:46.808Z,3.27
2018-11-28T17:10:19.358Z,1.90
2018-11-28T17:12:48.837Z,1.93
2018-11-28T17:15:18.172Z,2.30
2018-11-28T17:17:46.660Z,1.50
2018-11-28T17:20:16.252Z,4.10
2018-11-28T17:22:44.864Z,1.37
2018-11-28T17:25:16.816Z,1.60
2018-11-28T17:27:45.255Z,0.83
2018-11-28T17:30:18.825Z,1.70
2018-11-28T17:32:43.996Z,2.47
2018-11-28T17:35:13.261Z,1.43
2018-11-28T17:37:41.658Z,1.20
2018-11-28T17:40:18.841Z,1.53
2018-11-28T17:42:49.397Z,1.17
2018-11-28T17:45:18.792Z,1.73
2018-11-28T17:47:47.240Z,1.07
2018-11-28T17:50:18.815Z,1.53
2018-11-28T17:52:56.927Z,2.20
2018-11-28T17:55:26.288Z,1.73
2018-11-28T17:57:54.717Z,1.00
2018-11-28T18:00:23.154Z,2.43
2018-11-28T18:02:51.599Z,1.90
2018-11-28T18:05:20.012Z,1.80
2018-11-28T18:07:48.461Z,1.70
2018-11-28T18:10:18.437Z,1.93
2018-11-28T18:12:58.176Z,0.83
2018-11-28T18:15:26.588Z,2.73
2018-11-28T18:17:56.132Z,1.33
2018-11-28T18:20:24.541Z,1.70
2018-11-28T18:22:52.936Z,2.00
2018-11-28T18:25:21.778Z,1.47
2018-11-28T18:27:50.792Z,1.90
2018-11-28T18:30:19.312Z,1.97
2018-11-28T18:32:48.096Z,1.57
2018-11-28T18:35:16.524Z,3.13
2018-11-28T18:37:44.960Z,1.90
2018-11-28T18:40:13.606Z,0.93
2018-11-28T18:42:43.066Z,2.60
2018-11-28T18:45:18.386Z,1.57
2018-11-28T18:47:45.761Z,3.00
2018-11-28T18:50:14.512Z,2.47
2018-11-28T18:52:42.949Z,1.00
2018-11-28T18:55:16.542Z,2.70
2018-11-28T18:57:42.071Z,2.10
2018-11-28T19:00:13.856Z,1.20
2018-11-28T19:02:42.723Z,3.00
2018-11-28T19:05:10.698Z,2.63
2018-11-28T19:07:39.424Z,2.87
2018-11-28T19:10:12.889Z,3.00
2018-11-28T19:12:41.393Z,1.97
2018-11-28T19:15:14.896Z,1.60
2018-11-28T19:17:43.757Z,2.63
2018-11-28T19:20:14.781Z,2.00
2018-11-28T19:22:43.647Z,1.80
2018-11-28T19:25:14.217Z,1.20
2018-11-28T19:27:42.712Z,0.97
2018-11-28T19:30:12.516Z,2.20
2018-11-28T19:32:41.388Z,1.70
2018-11-28T19:35:11.040Z,1.23
2018-11-28T19:37:40.277Z,2.50
2018-11-28T19:40:13.176Z,2.30
2018-11-28T19:42:41.604Z,1.87
2018-11-28T19:45:10.008Z,3.50
2018-11-28T19:47:38.794Z,2.00
2018-11-28T19:50:17.198Z,2.73
2018-11-28T19:52:45.603Z,2.23
2018-11-28T19:55:14.360Z,2.27
2018-11-28T19:57:42.772Z,2.40
2018-11-28T20:00:15.357Z,1.63
2018-11-28T20:02:44.533Z,1.47
2018-11-28T20:05:12.977Z,1.70
2018-11-28T20:07:42.528Z,1.60
2018-11-28T20:10:12.324Z,2.90
2018-11-28T20:12:41.045Z,2.90
2018-11-28T20:15:14.926Z,1.07
2018-11-28T20:17:43.335Z,1.50
2018-11-28T20:20:12.785Z,4.07
2018-11-28T20:22:41.235Z,2.40
2018-11-28T20:25:12.492Z,2.20
2018-11-28T20:27:41.736Z,1.50
2018-11-28T20:30:18.412Z,0.80
2018-11-28T20:32:47.217Z,1.23
2018-11-28T20:35:15.610Z,1.43
2018-11-28T20:37:43.983Z,1.77
2018-11-28T20:40:14.536Z,2.17
2018-11-28T20:42:44.720Z,1.80
2018-11-28T20:45:13.622Z,1.70
2018-11-28T20:47:42.040Z,1.97
2018-11-28T20:50:12.295Z,3.00
2018-11-28T20:52:41.719Z,0.80
2018-11-28T20:55:10.873Z,1.30
2018-11-28T20:57:39.268Z,1.73
2018-11-28T21:00:15.069Z,1.83
2018-11-28T21:02:43.477Z,0.63
2018-11-28T21:05:11.996Z,2.17
2018-11-28T21:07:40.445Z,1.80
2018-11-28T21:10:16.485Z,2.00
2018-11-28T21:12:44.972Z,2.20
2018-11-28T21:15:13.764Z,3.07
2018-11-28T21:17:42.662Z,1.63
2018-11-28T21:20:16.327Z,1.33
2018-11-28T21:22:46.639Z,0.70
2018-11-28T21:25:15.175Z,1.70
2018-11-28T21:27:43.600Z,1.30
2018-11-28T21:30:13.543Z,1.50
2018-11-28T21:32:42.439Z,1.53
2018-11-28T21:35:15.226Z,2.47
2018-11-28T21:37:43.761Z,1.60
2018-11-28T21:40:12.916Z,2.87
2018-11-28T21:42:41.548Z,1.80
2018-11-28T21:45:12.399Z,1.10
2018-11-28T21:47:40.809Z,2.60
2018-11-28T21:50:10.828Z,1.87
2018-11-28T21:52:39.252Z,2.00
2018-11-28T21:55:09.776Z,1.20
2018-11-28T21:57:38.209Z,2.40
2018-11-28T22:00:11.435Z,1.47
2018-11-28T22:02:40.197Z,2.10
2018-11-28T22:05:09.920Z,2.40
2018-11-28T22:07:38.373Z,1.97
2018-11-28T22:10:14.971Z,2.33
2018-11-28T22:12:44.091Z,2.03
2018-11-28T22:15:15.526Z,2.27
2018-11-28T22:17:51.205Z,2.63
2018-11-28T22:20:19.657Z,2.60
2018-11-28T22:22:48.457Z,2.27
2018-11-28T22:25:18.071Z,2.10
2018-11-28T22:27:46.832Z,1.97
2018-11-28T22:30:16.730Z,1.80
2018-11-28T22:32:45.198Z,2.90
2018-11-28T22:35:13.884Z,1.23
2018-11-28T22:37:42.314Z,2.30
2018-11-28T22:40:13.722Z,3.33
2018-11-28T22:42:42.124Z,2.00
2018-11-28T22:45:12.997Z,1.80
2018-11-28T22:47:41.458Z,1.80
2018-11-28T22:50:10.972Z,1.37
2018-11-28T22:52:39.355Z,2.57
2018-11-28T22:55:09.140Z,2.00
2018-11-28T22:57:37.777Z,1.90
2018-11-28T23:00:10.515Z,1.43
2018-11-28T23:02:55.298Z,1.73
2018-11-28T23:05:26.555Z,2.83
2018-11-28T23:07:55.975Z,1.80
2018-11-28T23:10:25.385Z,1.33
2018-11-28T23:12:54.507Z,2.10
2018-11-28T23:15:22.935Z,1.50
2018-11-28T23:17:54.990Z,1.13
2018-11-28T23:20:20.134Z,1.90
2018-11-28T23:22:48.559Z,1.50
2018-11-28T23:25:17.293Z,1.53
2018-11-28T23:27:46.056Z,2.03
2018-11-28T23:30:16.557Z,1.30
2018-11-28T23:32:45.496Z,1.60
2018-11-28T23:35:13.993Z,2.60
2018-11-28T23:37:43.473Z,1.40
2018-11-28T23:40:16.894Z,2.63
2018-11-28T23:42:45.323Z,1.40
2018-11-28T23:45:14.733Z,2.17
2018-11-28T23:47:43.150Z,1.43
2018-11-28T23:50:15.808Z,2.00
2018-11-28T23:52:44.417Z,2.00
2018-11-28T23:55:23.438Z,1.43
2018-11-28T23:57:52.149Z,1.60
